sensor_id;sensor_type;location;lat;lon;timestamp;P1;durP1;ratioP1;P2;durP2;ratioP2
21266;SDS011;10791;53.108;18.326;2023-06-22T00:04:35;17.73;;;14.93;;
21266;SDS011;10791;53.108;18.326;2023-06-22T00:09:38;16.33;;;14.48;;
21266;SDS011;10791;53.108;18.326;2023-06-22T00:14:41;16.35;;;14.57;;
21266;SDS011;10791;53.108;18.326;2023-06-22T00:19:46;18.85;;;15.25;;
21266;SDS011;10791;53.108;18.326;2023-06-22T00:24:49;17.98;;;15.95;;
21266;SDS011;10791;53.108;18.326;2023-06-22T00:29:52;20.40;;;15.10;;
21266;SDS011;10791;53.108;18.326;2023-06-22T00:34:56;20.20;;;16.08;;
21266;SDS011;10791;53.108;18.326;2023-06-22T00:39:59;16.48;;;14.70;;
21266;SDS011;10791;53.108;18.326;2023-06-22T00:45:02;18.83;;;16.40;;
21266;SDS011;10791;53.108;18.326;2023-06-22T00:50:07;17.17;;;15.38;;
21266;SDS011;10791;53.108;18.326;2023-06-22T00:55:12;20.17;;;15.27;;
21266;SDS011;10791;53.108;18.326;2023-06-22T01:00:15;17.15;;;15.25;;
21266;SDS011;10791;53.108;18.326;2023-06-22T01:05:21;18.30;;;15.65;;
21266;SDS011;10791;53.108;18.326;2023-06-22T01:15:44;17.92;;;14.55;;
21266;SDS011;10791;53.108;18.326;2023-06-22T01:20:55;17.40;;;15.05;;
21266;SDS011;10791;53.108;18.326;2023-06-22T01:31:17;15.93;;;14.23;;
21266;SDS011;10791;53.108;18.326;2023-06-22T01:36:22;17.33;;;14.32;;
21266;SDS011;10791;53.108;18.326;2023-06-22T01:41:26;18.02;;;14.90;;
21266;SDS011;10791;53.108;18.326;2023-06-22T01:46:32;19.83;;;14.93;;
21266;SDS011;10791;53.108;18.326;2023-06-22T01:51:38;17.75;;;14.52;;
21266;SDS011;10791;53.108;18.326;2023-06-22T01:56:42;16.23;;;14.52;;
21266;SDS011;10791;53.108;18.326;2023-06-22T02:01:50;16.30;;;13.70;;
21266;SDS011;10791;53.108;18.326;2023-06-22T02:07:05;15.65;;;11.77;;
21266;SDS011;10791;53.108;18.326;2023-06-22T02:12:16;17.05;;;11.55;;
21266;SDS011;10791;53.108;18.326;2023-06-22T02:17:25;13.48;;;11.07;;
21266;SDS011;10791;53.108;18.326;2023-06-22T02:22:29;11.13;;;8.77;;
21266;SDS011;10791;53.108;18.326;2023-06-22T02:27:32;9.38;;;8.07;;
21266;SDS011;10791;53.108;18.326;2023-06-22T02:32:36;11.15;;;8.35;;
21266;SDS011;10791;53.108;18.326;2023-06-22T02:37:39;12.80;;;8.65;;
21266;SDS011;10791;53.108;18.326;2023-06-22T02:42:44;10.38;;;9.15;;
21266;SDS011;10791;53.108;18.326;2023-06-22T02:47:47;11.35;;;8.70;;
21266;SDS011;10791;53.108;18.326;2023-06-22T02:52:51;11.13;;;9.45;;
21266;SDS011;10791;53.108;18.326;2023-06-22T02:57:54;9.32;;;7.95;;
21266;SDS011;10791;53.108;18.326;2023-06-22T03:02:57;9.40;;;8.05;;
21266;SDS011;10791;53.108;18.326;2023-06-22T03:08:01;8.70;;;7.80;;
21266;SDS011;10791;53.108;18.326;2023-06-22T03:13:05;9.15;;;7.90;;
21266;SDS011;10791;53.108;18.326;2023-06-22T03:18:08;11.15;;;7.72;;
21266;SDS011;10791;53.108;18.326;2023-06-22T03:23:11;9.75;;;7.18;;
21266;SDS011;10791;53.108;18.326;2023-06-22T03:28:15;11.43;;;7.38;;
21266;SDS011;10791;53.108;18.326;2023-06-22T03:33:18;10.05;;;7.53;;
21266;SDS011;10791;53.108;18.326;2023-06-22T03:38:21;10.10;;;7.63;;
21266;SDS011;10791;53.108;18.326;2023-06-22T03:43:24;9.27;;;7.60;;
21266;SDS011;10791;53.108;18.326;2023-06-22T03:48:27;10.27;;;8.05;;
21266;SDS011;10791;53.108;18.326;2023-06-22T03:53:31;9.57;;;7.93;;
21266;SDS011;10791;53.108;18.326;2023-06-22T03:58:34;9.00;;;7.32;;
21266;SDS011;10791;53.108;18.326;2023-06-22T04:03:38;14.27;;;7.75;;
21266;SDS011;10791;53.108;18.326;2023-06-22T04:08:45;8.48;;;6.40;;
21266;SDS011;10791;53.108;18.326;2023-06-22T04:13:53;6.32;;;5.65;;
21266;SDS011;10791;53.108;18.326;2023-06-22T04:18:56;12.13;;;6.05;;
21266;SDS011;10791;53.108;18.326;2023-06-22T04:24:00;9.32;;;5.93;;
21266;SDS011;10791;53.108;18.326;2023-06-22T04:29:03;10.68;;;6.65;;
21266;SDS011;10791;53.108;18.326;2023-06-22T04:34:08;7.80;;;5.65;;
21266;SDS011;10791;53.108;18.326;2023-06-22T04:39:11;7.15;;;5.28;;
21266;SDS011;10791;53.108;18.326;2023-06-22T04:44:15;10.98;;;5.70;;
21266;SDS011;10791;53.108;18.326;2023-06-22T04:49:27;6.63;;;4.97;;
21266;SDS011;10791;53.108;18.326;2023-06-22T04:54:37;7.32;;;5.40;;
21266;SDS011;10791;53.108;18.326;2023-06-22T04:59:50;8.07;;;5.80;;
21266;SDS011;10791;53.108;18.326;2023-06-22T05:04:53;5.40;;;4.40;;
21266;SDS011;10791;53.108;18.326;2023-06-22T05:10:00;12.00;;;5.55;;
21266;SDS011;10791;53.108;18.326;2023-06-22T05:15:05;6.68;;;5.05;;
21266;SDS011;10791;53.108;18.326;2023-06-22T05:20:09;6.25;;;4.72;;
21266;SDS011;10791;53.108;18.326;2023-06-22T05:25:13;8.10;;;5.15;;
21266;SDS011;10791;53.108;18.326;2023-06-22T05:30:16;9.23;;;6.03;;
21266;SDS011;10791;53.108;18.326;2023-06-22T05:35:23;9.63;;;5.85;;
21266;SDS011;10791;53.108;18.326;2023-06-22T05:40:26;6.88;;;5.80;;
21266;SDS011;10791;53.108;18.326;2023-06-22T05:45:30;10.30;;;5.97;;
21266;SDS011;10791;53.108;18.326;2023-06-22T05:50:33;7.18;;;5.07;;
21266;SDS011;10791;53.108;18.326;2023-06-22T05:55:36;8.25;;;5.40;;
21266;SDS011;10791;53.108;18.326;2023-06-22T06:00:40;10.60;;;5.03;;
21266;SDS011;10791;53.108;18.326;2023-06-22T06:05:43;7.18;;;5.63;;
21266;SDS011;10791;53.108;18.326;2023-06-22T06:10:48;9.20;;;5.47;;
21266;SDS011;10791;53.108;18.326;2023-06-22T06:15:51;11.43;;;5.55;;
21266;SDS011;10791;53.108;18.326;2023-06-22T06:20:57;10.43;;;5.90;;
21266;SDS011;10791;53.108;18.326;2023-06-22T06:26:00;7.97;;;5.55;;
21266;SDS011;10791;53.108;18.326;2023-06-22T06:31:03;8.52;;;4.78;;
21266;SDS011;10791;53.108;18.326;2023-06-22T06:36:10;7.63;;;5.00;;
21266;SDS011;10791;53.108;18.326;2023-06-22T06:41:14;6.38;;;4.55;;
21266;SDS011;10791;53.108;18.326;2023-06-22T06:46:18;7.00;;;4.80;;
21266;SDS011;10791;53.108;18.326;2023-06-22T06:51:22;7.47;;;4.70;;
21266;SDS011;10791;53.108;18.326;2023-06-22T06:56:25;9.25;;;4.40;;
21266;SDS011;10791;53.108;18.326;2023-06-22T07:01:28;7.43;;;4.05;;
21266;SDS011;10791;53.108;18.326;2023-06-22T07:06:36;8.50;;;3.85;;
21266;SDS011;10791;53.108;18.326;2023-06-22T07:11:40;5.93;;;3.85;;
21266;SDS011;10791;53.108;18.326;2023-06-22T07:16:43;5.95;;;3.20;;
21266;SDS011;10791;53.108;18.326;2023-06-22T07:21:46;4.82;;;3.50;;
21266;SDS011;10791;53.108;18.326;2023-06-22T07:26:49;7.13;;;3.85;;
21266;SDS011;10791;53.108;18.326;2023-06-22T07:31:53;9.85;;;3.80;;
21266;SDS011;10791;53.108;18.326;2023-06-22T07:36:58;7.85;;;3.72;;
21266;SDS011;10791;53.108;18.326;2023-06-22T07:42:01;5.13;;;3.40;;
21266;SDS011;10791;53.108;18.326;2023-06-22T07:47:05;4.95;;;3.42;;
21266;SDS011;10791;53.108;18.326;2023-06-22T07:52:08;4.65;;;3.05;;
21266;SDS011;10791;53.108;18.326;2023-06-22T07:57:12;5.75;;;3.25;;
21266;SDS011;10791;53.108;18.326;2023-06-22T08:02:16;4.70;;;3.38;;
21266;SDS011;10791;53.108;18.326;2023-06-22T08:07:35;4.50;;;3.03;;
21266;SDS011;10791;53.108;18.326;2023-06-22T08:12:40;4.93;;;3.40;;
21266;SDS011;10791;53.108;18.326;2023-06-22T08:17:44;5.43;;;3.97;;
21266;SDS011;10791;53.108;18.326;2023-06-22T08:22:50;4.95;;;3.20;;
21266;SDS011;10791;53.108;18.326;2023-06-22T08:27:54;5.97;;;3.60;;
21266;SDS011;10791;53.108;18.326;2023-06-22T08:32:59;5.75;;;3.83;;
21266;SDS011;10791;53.108;18.326;2023-06-22T08:38:02;4.57;;;2.80;;
21266;SDS011;10791;53.108;18.326;2023-06-22T08:43:05;5.47;;;3.08;;
21266;SDS011;10791;53.108;18.326;2023-06-22T08:48:08;4.68;;;3.10;;
21266;SDS011;10791;53.108;18.326;2023-06-22T08:53:12;4.97;;;2.75;;
21266;SDS011;10791;53.108;18.326;2023-06-22T08:58:15;3.88;;;2.95;;
21266;SDS011;10791;53.108;18.326;2023-06-22T09:03:18;3.80;;;2.83;;
21266;SDS011;10791;53.108;18.326;2023-06-22T09:08:23;3.95;;;3.13;;
21266;SDS011;10791;53.108;18.326;2023-06-22T09:13:27;8.25;;;3.50;;
21266;SDS011;10791;53.108;18.326;2023-06-22T09:18:31;5.35;;;3.58;;
21266;SDS011;10791;53.108;18.326;2023-06-22T09:23:36;4.53;;;3.78;;
21266;SDS011;10791;53.108;18.326;2023-06-22T09:28:39;5.35;;;3.10;;
21266;SDS011;10791;53.108;18.326;2023-06-22T09:33:43;4.72;;;3.15;;
21266;SDS011;10791;53.108;18.326;2023-06-22T09:38:47;6.07;;;3.30;;
21266;SDS011;10791;53.108;18.326;2023-06-22T09:43:50;5.40;;;2.88;;
21266;SDS011;10791;53.108;18.326;2023-06-22T09:48:57;5.70;;;3.22;;
21266;SDS011;10791;53.108;18.326;2023-06-22T09:54:01;3.85;;;2.47;;
21266;SDS011;10791;53.108;18.326;2023-06-22T09:59:04;6.55;;;2.75;;
21266;SDS011;10791;53.108;18.326;2023-06-22T10:04:19;4.13;;;3.30;;
21266;SDS011;10791;53.108;18.326;2023-06-22T10:09:22;4.18;;;2.78;;
21266;SDS011;10791;53.108;18.326;2023-06-22T10:14:26;6.28;;;2.88;;
21266;SDS011;10791;53.108;18.326;2023-06-22T10:19:32;5.10;;;2.58;;
21266;SDS011;10791;53.108;18.326;2023-06-22T10:24:35;3.97;;;2.80;;
21266;SDS011;10791;53.108;18.326;2023-06-22T10:29:41;4.45;;;2.45;;
21266;SDS011;10791;53.108;18.326;2023-06-22T10:34:44;6.10;;;2.63;;
21266;SDS011;10791;53.108;18.326;2023-06-22T10:39:47;4.07;;;2.30;;
21266;SDS011;10791;53.108;18.326;2023-06-22T10:44:51;6.95;;;2.72;;
21266;SDS011;10791;53.108;18.326;2023-06-22T10:49:54;4.20;;;2.80;;
21266;SDS011;10791;53.108;18.326;2023-06-22T10:54:57;5.38;;;2.88;;
21266;SDS011;10791;53.108;18.326;2023-06-22T11:00:01;8.10;;;3.03;;
21266;SDS011;10791;53.108;18.326;2023-06-22T11:05:08;4.22;;;3.22;;
21266;SDS011;10791;53.108;18.326;2023-06-22T11:10:12;3.72;;;2.70;;
21266;SDS011;10791;53.108;18.326;2023-06-22T11:15:16;3.67;;;2.63;;
21266;SDS011;10791;53.108;18.326;2023-06-22T11:20:19;5.53;;;2.78;;
21266;SDS011;10791;53.108;18.326;2023-06-22T11:25:23;3.75;;;2.83;;
21266;SDS011;10791;53.108;18.326;2023-06-22T11:30:26;3.90;;;2.42;;
21266;SDS011;10791;53.108;18.326;2023-06-22T11:35:30;4.70;;;3.30;;
21266;SDS011;10791;53.108;18.326;2023-06-22T11:40:33;4.45;;;2.58;;
21266;SDS011;10791;53.108;18.326;2023-06-22T11:45:36;4.20;;;2.50;;
21266;SDS011;10791;53.108;18.326;2023-06-22T11:50:40;3.97;;;2.72;;
21266;SDS011;10791;53.108;18.326;2023-06-22T11:55:43;3.97;;;2.55;;
21266;SDS011;10791;53.108;18.326;2023-06-22T12:00:48;5.60;;;2.80;;
21266;SDS011;10791;53.108;18.326;2023-06-22T12:05:54;3.75;;;2.45;;
21266;SDS011;10791;53.108;18.326;2023-06-22T12:10:57;5.32;;;2.13;;
21266;SDS011;10791;53.108;18.326;2023-06-22T12:16:00;6.75;;;2.30;;
21266;SDS011;10791;53.108;18.326;2023-06-22T12:21:03;3.58;;;2.33;;
21266;SDS011;10791;53.108;18.326;2023-06-22T12:26:06;6.60;;;2.47;;
21266;SDS011;10791;53.108;18.326;2023-06-22T12:31:10;3.63;;;2.45;;
21266;SDS011;10791;53.108;18.326;2023-06-22T12:36:13;2.90;;;2.22;;
21266;SDS011;10791;53.108;18.326;2023-06-22T12:41:16;5.07;;;2.60;;
21266;SDS011;10791;53.108;18.326;2023-06-22T12:46:19;3.65;;;2.58;;
21266;SDS011;10791;53.108;18.326;2023-06-22T12:51:23;4.90;;;2.80;;
21266;SDS011;10791;53.108;18.326;2023-06-22T12:56:26;3.53;;;2.45;;
21266;SDS011;10791;53.108;18.326;2023-06-22T13:01:29;2.95;;;2.05;;
21266;SDS011;10791;53.108;18.326;2023-06-22T13:06:34;3.47;;;2.60;;
21266;SDS011;10791;53.108;18.326;2023-06-22T13:11:37;3.60;;;2.30;;
21266;SDS011;10791;53.108;18.326;2023-06-22T13:16:41;4.47;;;2.17;;
21266;SDS011;10791;53.108;18.326;2023-06-22T13:21:44;2.63;;;2.20;;
21266;SDS011;10791;53.108;18.326;2023-06-22T13:26:47;3.13;;;2.03;;
21266;SDS011;10791;53.108;18.326;2023-06-22T13:31:51;3.80;;;2.15;;
21266;SDS011;10791;53.108;18.326;2023-06-22T13:36:54;3.22;;;2.30;;
21266;SDS011;10791;53.108;18.326;2023-06-22T13:41:57;3.35;;;1.90;;
21266;SDS011;10791;53.108;18.326;2023-06-22T13:47:01;3.03;;;2.42;;
21266;SDS011;10791;53.108;18.326;2023-06-22T13:52:04;3.63;;;2.63;;
21266;SDS011;10791;53.108;18.326;2023-06-22T13:57:12;3.13;;;2.25;;
21266;SDS011;10791;53.108;18.326;2023-06-22T14:02:15;3.67;;;2.42;;
21266;SDS011;10791;53.108;18.326;2023-06-22T14:07:19;8.18;;;2.38;;
21266;SDS011;10791;53.108;18.326;2023-06-22T14:12:23;4.43;;;2.28;;
21266;SDS011;10791;53.108;18.326;2023-06-22T14:17:26;5.45;;;2.08;;
21266;SDS011;10791;53.108;18.326;2023-06-22T14:22:30;5.05;;;2.85;;
21266;SDS011;10791;53.108;18.326;2023-06-22T14:27:33;4.10;;;2.15;;
21266;SDS011;10791;53.108;18.326;2023-06-22T14:32:36;13.45;;;3.20;;
21266;SDS011;10791;53.108;18.326;2023-06-22T14:37:39;3.45;;;2.25;;
21266;SDS011;10791;53.108;18.326;2023-06-22T14:42:43;5.15;;;2.25;;
21266;SDS011;10791;53.108;18.326;2023-06-22T14:47:46;5.78;;;2.42;;
21266;SDS011;10791;53.108;18.326;2023-06-22T14:52:49;3.50;;;2.28;;
21266;SDS011;10791;53.108;18.326;2023-06-22T14:57:52;2.97;;;2.00;;
21266;SDS011;10791;53.108;18.326;2023-06-22T15:02:55;5.15;;;2.42;;
21266;SDS011;10791;53.108;18.326;2023-06-22T15:07:59;3.83;;;2.10;;
21266;SDS011;10791;53.108;18.326;2023-06-22T15:13:02;2.53;;;1.70;;
21266;SDS011;10791;53.108;18.326;2023-06-22T15:18:05;4.38;;;2.40;;
21266;SDS011;10791;53.108;18.326;2023-06-22T15:23:08;4.30;;;2.08;;
21266;SDS011;10791;53.108;18.326;2023-06-22T15:28:12;4.35;;;2.40;;
21266;SDS011;10791;53.108;18.326;2023-06-22T15:33:15;4.28;;;2.20;;
21266;SDS011;10791;53.108;18.326;2023-06-22T15:38:18;4.97;;;2.67;;
21266;SDS011;10791;53.108;18.326;2023-06-22T15:43:22;4.32;;;2.40;;
21266;SDS011;10791;53.108;18.326;2023-06-22T15:48:25;5.07;;;2.40;;
21266;SDS011;10791;53.108;18.326;2023-06-22T15:53:28;3.50;;;2.10;;
21266;SDS011;10791;53.108;18.326;2023-06-22T15:58:31;14.10;;;4.15;;
21266;SDS011;10791;53.108;18.326;2023-06-22T16:03:35;4.63;;;2.17;;
21266;SDS011;10791;53.108;18.326;2023-06-22T16:08:38;3.55;;;2.50;;
21266;SDS011;10791;53.108;18.326;2023-06-22T16:13:41;3.88;;;2.60;;
21266;SDS011;10791;53.108;18.326;2023-06-22T16:18:44;3.63;;;2.67;;
21266;SDS011;10791;53.108;18.326;2023-06-22T16:23:50;3.50;;;2.35;;
21266;SDS011;10791;53.108;18.326;2023-06-22T16:28:53;3.40;;;2.28;;
21266;SDS011;10791;53.108;18.326;2023-06-22T16:33:56;4.00;;;2.70;;
21266;SDS011;10791;53.108;18.326;2023-06-22T16:38:59;3.53;;;2.60;;
21266;SDS011;10791;53.108;18.326;2023-06-22T16:44:02;5.80;;;3.03;;
21266;SDS011;10791;53.108;18.326;2023-06-22T16:49:07;6.07;;;2.95;;
21266;SDS011;10791;53.108;18.326;2023-06-22T16:54:10;3.78;;;2.70;;
21266;SDS011;10791;53.108;18.326;2023-06-22T16:59:15;4.88;;;2.53;;
21266;SDS011;10791;53.108;18.326;2023-06-22T17:04:21;4.82;;;2.60;;
21266;SDS011;10791;53.108;18.326;2023-06-22T17:09:25;4.53;;;2.35;;
21266;SDS011;10791;53.108;18.326;2023-06-22T17:14:31;3.58;;;2.53;;
21266;SDS011;10791;53.108;18.326;2023-06-22T17:19:34;3.70;;;2.35;;
21266;SDS011;10791;53.108;18.326;2023-06-22T17:24:39;3.63;;;2.15;;
21266;SDS011;10791;53.108;18.326;2023-06-22T17:29:42;7.10;;;2.17;;
21266;SDS011;10791;53.108;18.326;2023-06-22T17:34:45;4.95;;;2.30;;
21266;SDS011;10791;53.108;18.326;2023-06-22T17:39:52;4.68;;;3.28;;
21266;SDS011;10791;53.108;18.326;2023-06-22T17:45:00;5.05;;;3.00;;
21266;SDS011;10791;53.108;18.326;2023-06-22T17:50:05;5.53;;;2.60;;
21266;SDS011;10791;53.108;18.326;2023-06-22T17:55:09;8.60;;;2.88;;
21266;SDS011;10791;53.108;18.326;2023-06-22T18:00:13;3.65;;;2.63;;
21266;SDS011;10791;53.108;18.326;2023-06-22T18:05:19;4.78;;;2.80;;
21266;SDS011;10791;53.108;18.326;2023-06-22T18:10:35;5.30;;;3.15;;
21266;SDS011;10791;53.108;18.326;2023-06-22T18:15:40;9.13;;;3.08;;
21266;SDS011;10791;53.108;18.326;2023-06-22T18:20:44;13.98;;;3.17;;
21266;SDS011;10791;53.108;18.326;2023-06-22T18:25:49;9.45;;;2.95;;
21266;SDS011;10791;53.108;18.326;2023-06-22T18:30:53;7.25;;;2.80;;
21266;SDS011;10791;53.108;18.326;2023-06-22T18:35:56;6.10;;;2.97;;
21266;SDS011;10791;53.108;18.326;2023-06-22T18:41:00;9.25;;;3.28;;
21266;SDS011;10791;53.108;18.326;2023-06-22T18:46:28;11.00;;;3.45;;
21266;SDS011;10791;53.108;18.326;2023-06-22T18:52:34;10.00;;;4.57;;
21266;SDS011;10791;53.108;18.326;2023-06-22T18:57:23;9.57;;;4.53;;
21266;SDS011;10791;53.108;18.326;2023-06-22T19:12:55;8.70;;;4.18;;
21266;SDS011;10791;53.108;18.326;2023-06-22T19:18:23;7.55;;;3.78;;
21266;SDS011;10791;53.108;18.326;2023-06-22T19:28:34;8.77;;;5.00;;
21266;SDS011;10791;53.108;18.326;2023-06-22T19:33:46;9.77;;;4.38;;
21266;SDS011;10791;53.108;18.326;2023-06-22T19:38:53;7.40;;;4.90;;
21266;SDS011;10791;53.108;18.326;2023-06-22T19:43:56;9.02;;;4.20;;
21266;SDS011;10791;53.108;18.326;2023-06-22T19:48:59;13.20;;;4.88;;
21266;SDS011;10791;53.108;18.326;2023-06-22T19:54:11;12.48;;;6.07;;
21266;SDS011;10791;53.108;18.326;2023-06-22T19:59:19;9.75;;;5.93;;
21266;SDS011;10791;53.108;18.326;2023-06-22T20:04:26;10.73;;;6.30;;
21266;SDS011;10791;53.108;18.326;2023-06-22T20:09:29;12.60;;;7.40;;
21266;SDS011;10791;53.108;18.326;2023-06-22T20:14:33;11.70;;;7.63;;
21266;SDS011;10791;53.108;18.326;2023-06-22T20:19:37;13.05;;;7.43;;
21266;SDS011;10791;53.108;18.326;2023-06-22T20:24:44;10.52;;;5.57;;
21266;SDS011;10791;53.108;18.326;2023-06-22T20:29:47;18.05;;;7.30;;
21266;SDS011;10791;53.108;18.326;2023-06-22T20:34:50;13.57;;;6.90;;
21266;SDS011;10791;53.108;18.326;2023-06-22T20:39:59;16.58;;;7.10;;
21266;SDS011;10791;53.108;18.326;2023-06-22T20:45:03;16.30;;;6.90;;
21266;SDS011;10791;53.108;18.326;2023-06-22T20:50:08;15.75;;;7.78;;
21266;SDS011;10791;53.108;18.326;2023-06-22T20:55:11;13.77;;;7.40;;
21266;SDS011;10791;53.108;18.326;2023-06-22T21:00:15;12.85;;;6.38;;
21266;SDS011;10791;53.108;18.326;2023-06-22T21:05:19;10.50;;;5.60;;
21266;SDS011;10791;53.108;18.326;2023-06-22T21:10:23;9.27;;;6.05;;
21266;SDS011;10791;53.108;18.326;2023-06-22T21:15:27;11.55;;;7.85;;
21266;SDS011;10791;53.108;18.326;2023-06-22T21:20:33;11.35;;;7.25;;
21266;SDS011;10791;53.108;18.326;2023-06-22T21:25:36;8.32;;;6.25;;
21266;SDS011;10791;53.108;18.326;2023-06-22T21:30:40;9.90;;;6.93;;
21266;SDS011;10791;53.108;18.326;2023-06-22T21:35:43;12.85;;;8.00;;
21266;SDS011;10791;53.108;18.326;2023-06-22T21:40:47;12.85;;;7.97;;
21266;SDS011;10791;53.108;18.326;2023-06-22T21:45:50;12.18;;;8.15;;
21266;SDS011;10791;53.108;18.326;2023-06-22T21:50:53;9.68;;;6.75;;
21266;SDS011;10791;53.108;18.326;2023-06-22T21:55:56;8.02;;;6.40;;
21266;SDS011;10791;53.108;18.326;2023-06-22T22:01:00;11.68;;;7.03;;
21266;SDS011;10791;53.108;18.326;2023-06-22T22:06:03;10.63;;;7.15;;
21266;SDS011;10791;53.108;18.326;2023-06-22T22:11:06;9.75;;;6.22;;
21266;SDS011;10791;53.108;18.326;2023-06-22T22:16:09;13.55;;;7.55;;
21266;SDS011;10791;53.108;18.326;2023-06-22T22:21:13;9.50;;;6.60;;
21266;SDS011;10791;53.108;18.326;2023-06-22T22:26:16;11.13;;;7.85;;
21266;SDS011;10791;53.108;18.326;2023-06-22T22:31:20;14.82;;;7.90;;
21266;SDS011;10791;53.108;18.326;2023-06-22T22:36:23;10.38;;;7.07;;
21266;SDS011;10791;53.108;18.326;2023-06-22T22:41:26;10.00;;;7.75;;
21266;SDS011;10791;53.108;18.326;2023-06-22T22:46:29;14.02;;;8.35;;
21266;SDS011;10791;53.108;18.326;2023-06-22T22:51:36;16.52;;;11.15;;
21266;SDS011;10791;53.108;18.326;2023-06-22T22:56:39;18.98;;;12.70;;
21266;SDS011;10791;53.108;18.326;2023-06-22T23:01:42;20.75;;;12.88;;
21266;SDS011;10791;53.108;18.326;2023-06-22T23:06:46;19.27;;;12.10;;
21266;SDS011;10791;53.108;18.326;2023-06-22T23:11:49;21.13;;;13.43;;
21266;SDS011;10791;53.108;18.326;2023-06-22T23:16:52;21.15;;;11.52;;
21266;SDS011;10791;53.108;18.326;2023-06-22T23:21:59;14.05;;;9.82;;
21266;SDS011;10791;53.108;18.326;2023-06-22T23:27:03;14.80;;;9.68;;
21266;SDS011;10791;53.108;18.326;2023-06-22T23:32:06;16.05;;;8.85;;
21266;SDS011;10791;53.108;18.326;2023-06-22T23:37:10;13.88;;;9.10;;
21266;SDS011;10791;53.108;18.326;2023-06-22T23:42:13;13.13;;;7.57;;
21266;SDS011;10791;53.108;18.326;2023-06-22T23:47:16;9.60;;;7.47;;
21266;SDS011;10791;53.108;18.326;2023-06-22T23:52:19;10.93;;;7.05;;
21266;SDS011;10791;53.108;18.326;2023-06-22T23:57:22;10.27;;;8.38;;
